createdAt,value
2019-05-23T00:00:00.708Z,11.50
2019-05-23T00:02:46.344Z,11.50
2019-05-23T00:05:24.969Z,11.70
2019-05-23T00:07:54.310Z,11.60
2019-05-23T00:10:29.227Z,11.70
2019-05-23T00:13:01.489Z,12.00
2019-05-23T00:15:34.736Z,11.90
2019-05-23T00:18:05.910Z,11.90
2019-05-23T00:20:33.921Z,11.90
2019-05-23T00:23:02.641Z,11.90
2019-05-23T00:25:33.583Z,12.00
2019-05-23T00:28:01.521Z,12.00
2019-05-23T00:30:38.127Z,12.10
2019-05-23T00:33:08.071Z,12.20
2019-05-23T00:35:35.830Z,12.20
2019-05-23T00:38:05.560Z,12.20
2019-05-23T00:40:33.792Z,12.20
2019-05-23T00:43:03.092Z,12.10
2019-05-23T00:45:31.743Z,12.20
2019-05-23T00:47:59.748Z,12.20
2019-05-23T00:50:29.396Z,12.80
2019-05-23T00:52:57.816Z,12.10
2019-05-23T00:55:27.989Z,12.10
2019-05-23T00:57:57.715Z,12.10
2019-05-23T01:00:26.984Z,12.30
2019-05-23T01:02:56.273Z,12.40
2019-05-23T01:05:25.286Z,12.30
2019-05-23T01:07:54.071Z,12.40
2019-05-23T01:10:22.570Z,12.40
2019-05-23T01:12:51.070Z,12.30
2019-05-23T01:15:21.947Z,12.30
2019-05-23T01:17:50.080Z,12.20
2019-05-23T01:20:20.795Z,12.30
2019-05-23T01:22:49.714Z,12.20
2019-05-23T01:25:20.709Z,12.20
2019-05-23T01:27:49.130Z,12.20
2019-05-23T01:30:21.414Z,12.00
2019-05-23T01:32:50.837Z,12.20
2019-05-23T01:35:20.294Z,12.20
2019-05-23T01:37:48.590Z,12.20
2019-05-23T01:40:16.954Z,12.10
2019-05-23T01:42:46.551Z,12.10
2019-05-23T01:45:14.771Z,12.20
2019-05-23T01:47:43.872Z,12.10
2019-05-23T01:50:14.103Z,12.20
2019-05-23T01:52:42.579Z,12.10
2019-05-23T01:55:10.718Z,12.20
2019-05-23T01:57:39.169Z,12.30
2019-05-23T02:00:11.803Z,12.20
2019-05-23T02:02:40.767Z,12.30
2019-05-23T02:07:37.682Z,12.40
2019-05-23T02:10:06.551Z,12.30
2019-05-23T02:12:34.948Z,12.40
2019-05-23T02:15:03.404Z,12.40
2019-05-23T02:17:32.082Z,12.30
2019-05-23T02:20:01.129Z,12.50
2019-05-23T02:22:32.631Z,12.30
2019-05-23T02:25:01.422Z,12.40
2019-05-23T02:27:30.488Z,12.20
2019-05-23T02:29:59.820Z,14.60
2019-05-23T02:32:27.900Z,12.40
2019-05-23T02:34:56.186Z,12.30
2019-05-23T02:37:55.604Z,12.10
2019-05-23T02:40:36.940Z,12.40
2019-05-23T02:43:05.276Z,12.30
2019-05-23T02:45:41.130Z,13.40
2019-05-23T02:48:11.463Z,12.50
2019-05-23T02:50:50.175Z,12.50
2019-05-23T02:53:20.373Z,12.50
2019-05-23T02:55:53.927Z,12.50
2019-05-23T02:58:30.218Z,12.40
2019-05-23T03:01:39.831Z,12.30
2019-05-23T03:04:12.034Z,11.20
2019-05-23T03:06:40.598Z,12.30
2019-05-23T03:09:11.447Z,12.20
2019-05-23T03:11:44.173Z,12.20
2019-05-23T03:14:12.725Z,12.20
2019-05-23T03:16:43.271Z,12.40
2019-05-23T03:19:21.321Z,12.30
2019-05-23T03:21:53.272Z,12.30
2019-05-23T03:24:21.074Z,12.30
2019-05-23T03:27:14.886Z,12.30
2019-05-23T03:29:43.230Z,12.30
2019-05-23T03:32:49.469Z,12.30
2019-05-23T03:35:30.177Z,12.30
2019-05-23T03:37:58.936Z,12.30
2019-05-23T03:40:27.686Z,12.30
2019-05-23T03:42:59.209Z,13.30
2019-05-23T03:45:39.713Z,12.30
2019-05-23T03:48:08.122Z,12.30
2019-05-23T03:50:35.805Z,12.40
2019-05-23T03:53:05.772Z,12.40
2019-05-23T03:55:33.612Z,12.30
2019-05-23T03:58:02.300Z,12.20
2019-05-23T04:00:33.900Z,12.20
2019-05-23T04:03:02.527Z,12.20
2019-05-23T04:05:30.142Z,12.20
2019-05-23T04:07:57.922Z,12.30
2019-05-23T04:10:25.878Z,12.40
2019-05-23T04:12:53.685Z,12.40
2019-05-23T04:15:22.259Z,12.40
2019-05-23T04:17:49.850Z,12.30
2019-05-23T04:20:17.620Z,12.20
2019-05-23T04:22:46.564Z,12.20
2019-05-23T04:25:14.659Z,11.90
2019-05-23T04:27:42.519Z,11.80
2019-05-23T04:30:10.715Z,11.70
2019-05-23T04:32:46.703Z,11.50
2019-05-23T04:35:18.046Z,11.50
2019-05-23T04:37:46.697Z,12.00
2019-05-23T04:40:23.236Z,11.60
2019-05-23T04:42:53.723Z,11.50
2019-05-23T04:45:25.288Z,11.50
2019-05-23T04:47:53.448Z,11.50
2019-05-23T04:50:21.229Z,11.40
2019-05-23T04:52:50.063Z,11.40
2019-05-23T04:55:21.840Z,11.70
2019-05-23T04:57:49.761Z,14.90
2019-05-23T05:00:18.593Z,11.70
2019-05-23T05:02:46.821Z,11.80
2019-05-23T05:05:16.432Z,12.10
2019-05-23T05:07:44.171Z,12.90
2019-05-23T05:10:19.611Z,13.90
2019-05-23T05:35:53.999Z,12.60
2019-05-23T05:38:48.609Z,11.90
2019-05-23T05:41:39.306Z,13.00
2019-05-23T05:44:45.848Z,13.00
2019-05-23T05:47:24.212Z,13.00
2019-05-23T05:50:05.660Z,13.20
2019-05-23T05:53:13.569Z,13.20
2019-05-23T05:56:25.895Z,13.40
2019-05-23T05:58:36.495Z,13.40
2019-05-23T06:01:11.364Z,13.40
2019-05-23T06:04:12.217Z,13.20
2019-05-23T06:07:02.374Z,13.30
2019-05-23T06:09:31.665Z,12.70
2019-05-23T06:12:00.486Z,13.20
2019-05-23T06:14:29.046Z,13.10
2019-05-23T06:17:00.876Z,13.20
2019-05-23T06:19:29.104Z,13.10
2019-05-23T06:21:58.778Z,13.50
2019-05-23T06:24:44.572Z,13.00
2019-05-23T06:26:59.600Z,12.90
2019-05-23T06:29:28.775Z,12.80
2019-05-23T06:31:57.098Z,12.70
2019-05-23T06:34:25.327Z,12.70
2019-05-23T06:36:53.981Z,12.80
2019-05-23T06:39:22.450Z,12.80
2019-05-23T06:41:50.256Z,12.90
2019-05-23T06:44:24.971Z,13.10
2019-05-23T06:46:53.683Z,13.20
2019-05-23T06:49:21.864Z,13.20
2019-05-23T06:51:49.707Z,13.40
2019-05-23T06:54:17.273Z,13.40
2019-05-23T06:56:45.304Z,13.70
2019-05-23T06:59:18.200Z,13.90
2019-05-23T07:02:08.338Z,13.50
2019-05-23T07:04:44.077Z,14.40
2019-05-23T07:07:20.330Z,14.10
2019-05-23T07:09:51.641Z,15.70
2019-05-23T07:12:19.898Z,12.90
2019-05-23T07:14:53.353Z,15.40
2019-05-23T07:17:23.168Z,15.00
2019-05-23T07:19:51.018Z,15.00
2019-05-23T07:22:19.992Z,15.50
2019-05-23T07:24:58.190Z,13.30
2019-05-23T07:27:25.947Z,15.70
2019-05-23T07:29:54.707Z,15.90
2019-05-23T07:32:23.250Z,16.00
2019-05-23T07:34:54.259Z,16.40
2019-05-23T07:37:33.176Z,16.50
2019-05-23T07:40:21.291Z,14.60
2019-05-23T07:42:53.688Z,17.50
2019-05-23T07:45:27.151Z,17.10
2019-05-23T07:47:58.707Z,16.80
2019-05-23T07:50:27.538Z,17.20
2019-05-23T07:53:02.296Z,17.30
2019-05-23T07:55:35.807Z,17.50
2019-05-23T07:58:14.549Z,16.50
2019-05-23T08:00:57.740Z,18.60
2019-05-23T08:03:29.489Z,18.60
2019-05-23T08:06:07.955Z,18.80
2019-05-23T08:08:41.028Z,18.60
2019-05-23T08:11:13.887Z,18.30
2019-05-23T08:13:55.529Z,19.00
2019-05-23T08:16:24.030Z,19.00
2019-05-23T08:18:53.357Z,19.00
2019-05-23T08:21:28.764Z,20.00
2019-05-23T08:24:07.184Z,19.60
2019-05-23T08:26:39.235Z,19.60
2019-05-23T08:29:26.865Z,20.10
2019-05-23T08:31:39.274Z,20.40
2019-05-23T08:34:19.004Z,18.30
2019-05-23T08:36:54.490Z,20.90
2019-05-23T08:39:32.557Z,21.00
2019-05-23T08:42:07.568Z,19.90
2019-05-23T08:44:43.441Z,21.20
2019-05-23T08:47:45.430Z,22.40
2019-05-23T08:50:23.892Z,21.10
2019-05-23T08:53:00.816Z,21.30
2019-05-23T08:55:29.717Z,21.40
2019-05-23T08:57:58.887Z,20.80
2019-05-23T09:00:28.040Z,20.60
2019-05-23T09:02:58.842Z,20.80
2019-05-23T09:05:29.942Z,20.70
2019-05-23T09:07:57.792Z,20.90
2019-05-23T09:10:26.199Z,21.10
2019-05-23T09:12:54.110Z,21.00
2019-05-23T09:15:25.165Z,20.70
2019-05-23T09:17:54.240Z,20.70
2019-05-23T09:20:22.600Z,20.80
2019-05-23T09:22:50.279Z,20.70
2019-05-23T09:25:18.340Z,20.50
2019-05-23T09:27:46.958Z,20.50
2019-05-23T09:30:16.051Z,20.20
2019-05-23T09:32:43.744Z,20.00
2019-05-23T09:35:21.110Z,20.00
2019-05-23T09:37:42.545Z,20.00
2019-05-23T09:40:12.693Z,20.10
2019-05-23T09:42:40.217Z,20.00
2019-05-23T09:45:08.077Z,20.20
2019-05-23T09:47:36.037Z,20.10
2019-05-23T09:50:05.067Z,20.30
2019-05-23T09:52:33.478Z,20.50
2019-05-23T09:55:01.102Z,20.50
2019-05-23T09:57:29.007Z,20.20
2019-05-23T09:59:57.144Z,20.30
2019-05-23T10:02:26.751Z,20.40
2019-05-23T10:04:54.600Z,20.50
2019-05-23T10:07:22.199Z,20.70
2019-05-23T10:09:49.774Z,21.00
2019-05-23T10:12:17.438Z,21.00
2019-05-23T10:14:45.125Z,21.10
2019-05-23T10:17:12.676Z,21.10
2019-05-23T10:19:40.645Z,21.50
2019-05-23T10:22:08.354Z,21.30
2019-05-23T10:24:35.918Z,21.10
2019-05-23T10:27:05.617Z,21.10
2019-05-23T10:29:33.186Z,21.30
2019-05-23T10:32:00.812Z,21.70
2019-05-23T10:34:28.405Z,21.70
2019-05-23T10:36:59.415Z,21.70
2019-05-23T10:39:27.005Z,21.50
2019-05-23T10:41:54.806Z,21.30
2019-05-23T10:44:22.543Z,21.20
2019-05-23T10:46:50.143Z,21.00
2019-05-23T10:49:17.854Z,21.00
2019-05-23T10:51:45.524Z,24.00
2019-05-23T10:54:13.509Z,21.20
2019-05-23T10:56:41.113Z,21.20
2019-05-23T10:59:08.746Z,21.10
2019-05-23T11:01:36.408Z,21.00
2019-05-23T11:04:04.292Z,21.10
2019-05-23T11:06:32.072Z,21.10
2019-05-23T11:09:01.167Z,21.10
2019-05-23T11:11:29.028Z,21.20
2019-05-23T11:13:56.906Z,21.40
2019-05-23T11:16:25.299Z,21.20
2019-05-23T11:18:59.495Z,21.30
2019-05-23T11:21:27.389Z,23.00
2019-05-23T11:23:55.692Z,21.70
2019-05-23T11:26:23.369Z,22.10
2019-05-23T11:28:51.089Z,22.10
2019-05-23T11:31:18.949Z,22.10
2019-05-23T11:33:46.735Z,22.20
2019-05-23T11:36:31.572Z,22.40
2019-05-23T11:38:44.555Z,22.40
2019-05-23T11:41:12.358Z,22.40
2019-05-23T11:43:41.455Z,22.30
2019-05-23T11:46:40.786Z,22.60
2019-05-23T11:49:09.366Z,23.10
2019-05-23T11:51:37.522Z,23.00
2019-05-23T11:54:08.280Z,23.00
2019-05-23T11:56:36.302Z,22.80
2019-05-23T11:59:04.502Z,22.80
2019-05-23T12:01:44.695Z,22.60
2019-05-23T12:04:17.010Z,22.60
2019-05-23T12:06:55.419Z,22.80
2019-05-23T12:09:17.879Z,23.00
2019-05-23T12:11:45.660Z,23.20
2019-05-23T12:14:13.269Z,22.90
2019-05-23T12:16:41.215Z,22.90
2019-05-23T12:19:08.842Z,23.30
2019-05-23T12:21:36.510Z,23.50
2019-05-23T12:24:04.348Z,23.70
2019-05-23T12:26:32.022Z,24.00
2019-05-23T12:28:59.873Z,24.00
2019-05-23T12:31:27.549Z,24.00
2019-05-23T12:33:55.412Z,24.20
2019-05-23T12:36:24.348Z,24.60
2019-05-23T12:38:52.222Z,24.90
2019-05-23T12:41:20.333Z,24.80
2019-05-23T12:43:48.018Z,25.00
2019-05-23T12:46:15.693Z,25.00
2019-05-23T12:48:58.893Z,24.90
2019-05-23T12:51:28.622Z,24.80
2019-05-23T12:53:57.624Z,25.20
2019-05-23T12:56:25.796Z,25.10
2019-05-23T12:58:53.500Z,25.00
2019-05-23T13:01:22.198Z,25.20
2019-05-23T13:03:49.824Z,25.60
2019-05-23T13:06:17.463Z,24.70
2019-05-23T13:08:45.561Z,23.90
2019-05-23T13:11:13.204Z,23.70
2019-05-23T13:13:40.861Z,23.90
2019-05-23T13:16:08.815Z,23.90
2019-05-23T13:18:36.488Z,23.70
2019-05-23T13:21:05.206Z,24.20
2019-05-23T13:23:33.584Z,23.90
2019-05-23T13:26:01.126Z,23.80
2019-05-23T13:28:29.299Z,24.30
2019-05-23T13:30:57.062Z,24.20
2019-05-23T13:33:25.163Z,24.20
2019-05-23T13:35:52.995Z,24.30
2019-05-23T13:38:20.845Z,24.00
2019-05-23T13:40:48.579Z,24.10
2019-05-23T13:43:16.279Z,24.30
2019-05-23T13:45:44.426Z,24.70
2019-05-23T13:48:12.325Z,24.10
2019-05-23T13:50:39.957Z,23.80
2019-05-23T13:53:07.749Z,23.90
2019-05-23T13:55:37.327Z,24.00
2019-05-23T13:58:05.002Z,23.80
2019-05-23T14:00:33.613Z,23.70
2019-05-23T14:03:01.300Z,23.70
2019-05-23T14:05:29.163Z,23.70
2019-05-23T14:08:10.429Z,23.60
2019-05-23T14:10:26.709Z,23.40
2019-05-23T14:12:54.263Z,23.20
2019-05-23T14:15:24.145Z,23.00
2019-05-23T14:17:51.861Z,23.30
2019-05-23T14:20:21.671Z,23.50
2019-05-23T14:22:54.152Z,23.60
2019-05-23T14:25:22.763Z,23.30
2019-05-23T14:27:58.990Z,23.30
2019-05-23T14:30:39.404Z,23.60
2019-05-23T14:33:12.386Z,23.40
2019-05-23T14:35:40.998Z,23.40
2019-05-23T14:38:10.314Z,23.30
2019-05-23T14:40:38.244Z,23.60
2019-05-23T14:43:25.421Z,24.10
2019-05-23T14:46:07.307Z,24.40
2019-05-23T14:48:43.562Z,24.20
2019-05-23T14:51:21.660Z,24.10
2019-05-23T14:53:52.290Z,24.00
2019-05-23T14:56:21.539Z,23.20
2019-05-23T14:58:49.346Z,22.80
2019-05-23T15:01:17.745Z,22.70
2019-05-23T15:03:45.521Z,22.40
2019-05-23T15:06:13.125Z,22.30
2019-05-23T15:08:51.254Z,22.10
2019-05-23T15:11:10.875Z,22.00
2019-05-23T15:13:38.524Z,21.90
2019-05-23T15:16:06.176Z,22.00
2019-05-23T15:18:33.755Z,22.00
2019-05-23T15:21:01.405Z,22.00
2019-05-23T15:23:29.412Z,22.30
2019-05-23T15:25:57.206Z,22.20
2019-05-23T15:28:25.277Z,21.90
2019-05-23T15:30:52.996Z,21.70
2019-05-23T15:33:21.017Z,21.50
2019-05-23T15:35:49.437Z,21.30
2019-05-23T15:38:17.085Z,21.10
2019-05-23T15:40:45.210Z,21.10
2019-05-23T15:43:13.034Z,21.00
2019-05-23T15:45:41.090Z,20.70
2019-05-23T15:48:08.879Z,20.70
2019-05-23T15:50:42.771Z,20.70
2019-05-23T15:53:30.004Z,20.60
2019-05-23T15:56:26.893Z,20.50
2019-05-23T15:58:56.637Z,20.40
2019-05-23T16:01:36.672Z,20.50
2019-05-23T16:04:10.501Z,20.40
2019-05-23T16:06:38.241Z,20.30
2019-05-23T16:09:25.615Z,20.30
2019-05-23T16:11:38.832Z,20.40
2019-05-23T16:14:06.449Z,20.20
2019-05-23T16:16:34.315Z,20.10
2019-05-23T16:19:02.228Z,19.90
2019-05-23T16:21:30.201Z,19.80
2019-05-23T16:23:58.491Z,19.50
2019-05-23T16:26:26.125Z,19.40
2019-05-23T16:28:53.817Z,19.30
2019-05-23T16:31:21.558Z,19.20
2019-05-23T16:33:49.380Z,18.90
2019-05-23T16:36:17.231Z,18.70
2019-05-23T16:38:44.830Z,18.60
2019-05-23T16:41:12.518Z,18.60
2019-05-23T16:43:40.195Z,18.60
2019-05-23T16:46:08.748Z,18.50
2019-05-23T16:48:36.570Z,18.50
2019-05-23T16:51:04.421Z,18.40
2019-05-23T16:53:35.643Z,18.20
2019-05-23T16:56:12.941Z,18.10
2019-05-23T16:59:15.325Z,18.00
2019-05-23T17:02:06.082Z,18.00
2019-05-23T17:05:08.634Z,17.90
2019-05-23T17:07:48.088Z,18.00
2019-05-23T17:10:38.385Z,17.90
2019-05-23T17:13:28.789Z,17.90
2019-05-23T17:16:21.363Z,17.90
2019-05-23T17:19:26.643Z,17.80
2019-05-23T17:22:24.099Z,17.80
2019-05-23T17:25:06.390Z,16.90
2019-05-23T17:27:58.833Z,17.70
2019-05-23T17:30:54.720Z,17.60
2019-05-23T17:33:23.458Z,17.50
2019-05-23T17:35:51.243Z,17.40
2019-05-23T17:38:19.392Z,17.30
2019-05-23T17:40:49.684Z,17.00
2019-05-23T17:43:17.510Z,17.00
2019-05-23T17:45:45.216Z,17.20
2019-05-23T17:48:13.242Z,17.20
2019-05-23T17:50:42.283Z,17.30
2019-05-23T17:53:10.098Z,17.40
2019-05-23T17:55:38.410Z,17.50
2019-05-23T17:58:09.033Z,17.50
2019-05-23T18:00:38.649Z,17.50
2019-05-23T18:03:07.132Z,17.50
2019-05-23T18:05:35.597Z,17.50
2019-05-23T18:08:04.622Z,17.50
2019-05-23T18:10:43.850Z,17.60
2019-05-23T18:13:02.818Z,17.60
2019-05-23T18:15:31.023Z,17.60
2019-05-23T18:17:59.005Z,17.60
2019-05-23T18:20:27.658Z,17.60
2019-05-23T18:22:55.299Z,17.50
2019-05-23T18:25:23.297Z,17.40
2019-05-23T18:28:01.203Z,17.40
2019-05-23T18:30:35.184Z,17.20
2019-05-23T18:33:04.060Z,17.10
2019-05-23T18:35:31.880Z,16.60
2019-05-23T18:37:59.609Z,16.60
2019-05-23T18:40:28.467Z,16.20
2019-05-23T18:42:56.345Z,16.30
2019-05-23T18:45:24.462Z,16.20
2019-05-23T18:47:52.414Z,16.20
2019-05-23T18:50:21.818Z,16.10
2019-05-23T18:52:51.873Z,16.20
2019-05-23T18:55:36.504Z,16.30
2019-05-23T18:58:20.324Z,16.30
2019-05-23T19:01:18.455Z,16.40
2019-05-23T19:03:47.671Z,16.40
2019-05-23T19:06:15.577Z,16.80
2019-05-23T19:08:43.292Z,16.70
2019-05-23T19:11:20.157Z,16.80
2019-05-23T19:13:40.754Z,16.80
2019-05-23T19:16:08.490Z,16.70
2019-05-23T19:18:36.608Z,16.70
2019-05-23T19:21:05.345Z,16.70
2019-05-23T19:23:33.247Z,16.70
2019-05-23T19:26:01.321Z,16.80
2019-05-23T19:28:29.786Z,16.80
2019-05-23T19:30:58.350Z,16.70
2019-05-23T19:33:26.779Z,16.70
2019-05-23T19:35:55.211Z,16.70
2019-05-23T19:38:23.575Z,16.80
2019-05-23T19:40:52.245Z,16.80
2019-05-23T19:43:20.654Z,16.60
2019-05-23T19:45:49.469Z,16.80
2019-05-23T19:48:21.148Z,16.60
2019-05-23T19:50:50.082Z,16.50
2019-05-23T19:53:19.221Z,16.50
2019-05-23T19:55:47.276Z,16.40
2019-05-23T19:58:15.630Z,18.10
2019-05-23T20:00:44.970Z,15.90
2019-05-23T20:03:13.088Z,16.20
2019-05-23T20:05:41.819Z,16.10
2019-05-23T20:08:10.208Z,16.10
2019-05-23T20:10:38.345Z,16.10
2019-05-23T20:13:06.221Z,14.70
2019-05-23T20:15:34.922Z,16.10
2019-05-23T20:18:03.394Z,16.00
2019-05-23T20:20:32.528Z,15.70
2019-05-23T20:23:00.324Z,16.00
2019-05-23T20:25:28.860Z,15.70
2019-05-23T20:27:56.689Z,15.60
2019-05-23T20:31:03.568Z,15.30
2019-05-23T20:33:31.528Z,14.90
2019-05-23T20:35:59.894Z,14.60
2019-05-23T20:38:28.078Z,14.30
2019-05-23T20:40:56.508Z,14.20
2019-05-23T20:43:24.491Z,14.20
2019-05-23T20:45:52.226Z,14.30
2019-05-23T20:48:20.256Z,14.20
2019-05-23T20:50:48.278Z,14.40
2019-05-23T20:53:16.186Z,14.40
2019-05-23T20:55:44.363Z,14.60
2019-05-23T20:58:12.054Z,14.50
2019-05-23T21:01:16.358Z,14.70
2019-05-23T21:03:44.909Z,14.70
2019-05-23T21:06:13.435Z,14.70
2019-05-23T21:08:41.335Z,14.70
2019-05-23T21:11:09.266Z,14.70
2019-05-23T21:13:37.071Z,14.70
2019-05-23T21:16:04.739Z,14.70
2019-05-23T21:18:32.401Z,14.80
2019-05-23T21:21:00.400Z,14.80
2019-05-23T21:23:28.130Z,14.70
2019-05-23T21:26:06.664Z,14.70
2019-05-23T21:28:35.173Z,14.70
2019-05-23T21:31:03.574Z,14.80
2019-05-23T21:33:31.251Z,14.70
2019-05-23T21:35:59.061Z,14.70
2019-05-23T21:38:26.968Z,14.60
2019-05-23T21:40:54.585Z,14.70
2019-05-23T21:43:22.309Z,14.70
2019-05-23T21:45:50.297Z,14.70
2019-05-23T21:48:18.144Z,14.70
2019-05-23T21:50:45.871Z,14.60
2019-05-23T21:53:13.534Z,14.60
2019-05-23T21:55:42.392Z,14.60
2019-05-23T21:58:11.517Z,14.60
2019-05-23T22:01:24.189Z,14.50
2019-05-23T22:04:17.717Z,14.50
2019-05-23T22:06:49.613Z,14.40
2019-05-23T22:09:17.380Z,14.30
2019-05-23T22:11:44.948Z,14.30
2019-05-23T22:14:12.554Z,14.20
2019-05-23T22:16:40.090Z,14.20
2019-05-23T22:19:09.656Z,14.10
2019-05-23T22:21:37.221Z,14.00
2019-05-23T22:24:05.194Z,14.10
2019-05-23T22:26:33.021Z,13.90
2019-05-23T22:29:00.585Z,13.90
2019-05-23T22:31:28.692Z,13.80
2019-05-23T22:34:02.498Z,13.90
2019-05-23T22:36:30.105Z,13.90
2019-05-23T22:38:57.685Z,13.80
2019-05-23T22:41:25.219Z,13.70
2019-05-23T22:43:52.834Z,13.80
2019-05-23T22:46:21.915Z,14.00
2019-05-23T22:48:49.491Z,14.00
2019-05-23T22:51:17.192Z,14.00
2019-05-23T22:53:44.755Z,14.00
2019-05-23T22:56:12.320Z,14.00
2019-05-23T22:58:39.876Z,14.00
2019-05-23T23:01:07.676Z,14.00
2019-05-23T23:03:35.225Z,13.90
2019-05-23T23:06:02.908Z,13.90
2019-05-23T23:08:31.598Z,13.90
2019-05-23T23:10:59.203Z,13.80
2019-05-23T23:13:38.132Z,13.80
2019-05-23T23:15:56.346Z,13.90
2019-05-23T23:18:23.954Z,13.70
2019-05-23T23:20:51.854Z,13.70
2019-05-23T23:23:19.430Z,13.80
2019-05-23T23:25:47.181Z,13.80
2019-05-23T23:28:14.761Z,13.80
2019-05-23T23:30:45.085Z,13.70
2019-05-23T23:33:12.747Z,13.70
2019-05-23T23:35:40.715Z,13.80
2019-05-23T23:38:08.368Z,13.80
2019-05-23T23:40:35.945Z,13.80
2019-05-23T23:43:06.504Z,13.80
2019-05-23T23:45:52.182Z,13.80
2019-05-23T23:48:37.793Z,13.70
2019-05-23T23:51:23.424Z,13.60
2019-05-23T23:54:09.001Z,13.50
2019-05-23T23:56:54.682Z,12.60
2019-05-23T23:59:21.710Z,13.50
